createdAt,value
2018-07-31T08:34:20.720Z,9.93
2018-07-31T08:36:49.156Z,8.27
2018-07-31T08:39:17.711Z,5.27
2018-07-31T08:41:46.289Z,5.00
2018-07-31T08:44:14.778Z,5.67
2018-07-31T08:46:43.220Z,13.23
2018-07-31T08:49:11.487Z,5.63
2018-07-31T08:51:39.958Z,4.90
2018-07-31T08:54:08.462Z,4.73
2018-07-31T08:56:36.927Z,6.00
2018-07-31T08:59:05.441Z,4.40
2018-07-31T09:01:33.539Z,4.40
2018-07-31T09:04:02.030Z,6.20
2018-07-31T09:06:30.465Z,4.03
2018-07-31T09:08:58.710Z,3.67
2018-07-31T09:11:27.166Z,4.30
2018-07-31T09:13:55.575Z,3.83
2018-07-31T09:16:24.043Z,2.53
2018-07-31T09:18:52.485Z,2.53
2018-07-31T09:21:20.911Z,3.53
2018-07-31T09:23:49.339Z,3.50
2018-07-31T09:26:17.843Z,3.97
2018-07-31T09:28:46.291Z,14.50
2018-07-31T09:31:14.778Z,10.17
2018-07-31T09:33:43.418Z,7.67
2018-07-31T09:36:12.220Z,5.87
2018-07-31T09:38:40.697Z,2.73
2018-07-31T09:41:09.204Z,7.30
2018-07-31T09:43:37.302Z,3.80
2018-07-31T09:46:05.780Z,2.87
2018-07-31T09:48:34.213Z,2.93
2018-07-31T09:51:02.899Z,1.47
2018-07-31T09:53:31.347Z,1.43
2018-07-31T09:56:00.013Z,2.07
2018-07-31T09:58:28.142Z,1.90
2018-07-31T10:01:02.082Z,1.77
2018-07-31T10:03:30.503Z,1.80
2018-07-31T10:05:58.901Z,1.47
2018-07-31T10:08:27.696Z,1.83
2018-07-31T10:10:56.379Z,1.80
2018-07-31T10:13:24.790Z,1.67
2018-07-31T10:15:53.243Z,1.70
2018-07-31T10:18:21.757Z,2.00
2018-07-31T10:20:50.115Z,1.50
2018-07-31T10:23:18.554Z,1.73
2018-07-31T10:25:46.991Z,1.80
2018-07-31T10:28:15.551Z,1.97
2018-07-31T10:30:43.981Z,1.33
2018-07-31T10:33:12.383Z,1.83
2018-07-31T10:35:40.804Z,2.60
2018-07-31T10:38:09.299Z,1.60
2018-07-31T10:40:37.747Z,1.60
2018-07-31T10:43:06.219Z,1.50
2018-07-31T10:45:34.748Z,1.80
2018-07-31T10:48:03.216Z,2.00
2018-07-31T10:50:31.674Z,2.20
2018-07-31T10:53:00.078Z,2.07
2018-07-31T10:55:28.543Z,2.00
2018-07-31T10:57:57.016Z,2.20
2018-07-31T11:00:25.566Z,1.50
2018-07-31T11:02:54.104Z,2.07
2018-07-31T11:05:23.655Z,1.93
2018-07-31T11:07:52.069Z,2.47
2018-07-31T11:10:20.597Z,2.00
2018-07-31T11:12:48.752Z,1.70
2018-07-31T11:15:17.196Z,2.10
2018-07-31T11:17:45.775Z,1.70
2018-07-31T11:20:14.193Z,1.80
2018-07-31T11:22:43.063Z,1.70
2018-07-31T11:25:11.509Z,1.50
2018-07-31T11:27:39.902Z,1.50
2018-07-31T11:30:09.455Z,1.53
2018-07-31T11:32:37.880Z,1.50
2018-07-31T11:35:06.327Z,1.50
2018-07-31T11:37:35.705Z,3.57
2018-07-31T11:40:04.311Z,1.40
2018-07-31T11:43:56.970Z,1.90
2018-07-31T11:46:25.443Z,1.63
2018-07-31T11:48:53.919Z,1.60
2018-07-31T11:51:22.477Z,1.50
2018-07-31T11:53:50.895Z,1.70
2018-07-31T11:56:19.328Z,1.53
2018-07-31T11:58:47.774Z,1.40
2018-07-31T12:01:16.082Z,1.57
2018-07-31T12:03:44.553Z,1.70
2018-07-31T12:06:12.936Z,2.00
2018-07-31T12:08:41.397Z,1.70
2018-07-31T12:11:09.512Z,1.70
2018-07-31T12:13:37.987Z,1.53
2018-07-31T12:16:06.508Z,1.57
2018-07-31T12:18:34.938Z,1.60
2018-07-31T12:21:03.426Z,1.60
2018-07-31T12:23:31.883Z,1.40
2018-07-31T12:26:00.088Z,3.43
2018-07-31T12:28:28.511Z,1.80
2018-07-31T12:30:57.208Z,1.97
2018-07-31T12:33:25.736Z,1.67
2018-07-31T12:35:54.319Z,1.80
2018-07-31T12:38:22.842Z,1.80
2018-07-31T12:40:51.308Z,1.70
2018-07-31T12:43:20.547Z,2.10
2018-07-31T12:45:48.724Z,1.63
2018-07-31T12:48:16.982Z,1.60
2018-07-31T12:50:45.451Z,3.93
2018-07-31T12:53:13.933Z,4.30
2018-07-31T12:55:42.454Z,1.80
2018-07-31T12:58:10.915Z,1.60
2018-07-31T13:00:39.447Z,1.47
2018-07-31T13:03:08.091Z,1.67
2018-07-31T13:05:36.337Z,1.80
2018-07-31T13:08:04.892Z,1.70
2018-07-31T13:10:33.427Z,2.07
2018-07-31T13:13:01.998Z,1.23
2018-07-31T13:15:30.544Z,1.53
2018-07-31T13:17:59.051Z,1.50
2018-07-31T13:20:27.499Z,1.70
2018-07-31T13:22:56.131Z,1.63
2018-07-31T13:25:24.614Z,1.57
2018-07-31T13:27:53.155Z,1.60
2018-07-31T13:30:21.596Z,1.83
2018-07-31T13:32:49.791Z,2.07
2018-07-31T13:35:18.344Z,1.40
2018-07-31T13:37:46.811Z,2.60
2018-07-31T13:40:15.234Z,2.17
2018-07-31T13:42:43.741Z,2.20
2018-07-31T13:45:12.220Z,1.47
2018-07-31T13:47:40.743Z,1.57
2018-07-31T13:50:09.199Z,1.50
2018-07-31T13:52:37.738Z,1.90
2018-07-31T13:55:06.499Z,1.53
2018-07-31T13:57:34.964Z,1.57
2018-07-31T14:00:03.457Z,2.03
2018-07-31T14:02:31.975Z,1.27
2018-07-31T14:05:00.593Z,1.53
2018-07-31T14:07:29.040Z,1.60
2018-07-31T14:09:57.507Z,1.53
2018-07-31T14:12:25.963Z,2.63
2018-07-31T14:14:54.409Z,1.60
2018-07-31T14:17:22.800Z,1.40
2018-07-31T14:19:51.262Z,1.77
2018-07-31T14:22:19.714Z,1.50
2018-07-31T14:24:48.255Z,1.67
2018-07-31T14:27:16.735Z,1.60
2018-07-31T14:29:45.245Z,1.43
2018-07-31T14:32:13.819Z,1.50
2018-07-31T14:34:42.235Z,1.70
2018-07-31T14:37:10.323Z,1.57
2018-07-31T14:39:39.607Z,1.20
2018-07-31T14:42:08.736Z,1.30
2018-07-31T14:44:37.308Z,2.37
2018-07-31T14:47:05.779Z,1.70
2018-07-31T14:49:34.242Z,1.17
2018-07-31T14:52:02.412Z,1.30
2018-07-31T14:54:30.907Z,1.40
2018-07-31T14:56:59.846Z,1.20
2018-07-31T14:59:28.447Z,1.30
2018-07-31T15:01:57.080Z,1.73
2018-07-31T15:04:25.599Z,13.30
2018-07-31T15:06:54.099Z,1.23
2018-07-31T15:09:22.579Z,1.27
2018-07-31T15:11:51.121Z,1.20
2018-07-31T15:14:19.531Z,2.40
2018-07-31T15:16:48.771Z,2.27
2018-07-31T15:19:16.956Z,1.90
2018-07-31T15:21:46.361Z,1.37
2018-07-31T15:24:14.820Z,2.77
2018-07-31T15:26:43.451Z,2.40
2018-07-31T15:29:12.068Z,1.27
2018-07-31T15:31:40.720Z,1.50
2018-07-31T15:34:09.268Z,1.17
2018-07-31T15:36:37.418Z,2.20
2018-07-31T15:39:09.274Z,2.37
2018-07-31T15:41:37.825Z,1.60
2018-07-31T15:44:06.411Z,1.40
2018-07-31T15:46:35.715Z,1.87
2018-07-31T15:49:04.231Z,1.20
2018-07-31T15:51:33.239Z,1.17
2018-07-31T15:54:01.744Z,2.20
2018-07-31T15:56:30.276Z,1.50
2018-07-31T15:58:58.812Z,1.57
2018-07-31T16:01:28.685Z,1.20
2018-07-31T16:03:57.791Z,1.13
2018-07-31T16:06:26.369Z,1.90
2018-07-31T16:08:54.859Z,1.10
2018-07-31T16:11:23.419Z,1.63
2018-07-31T16:13:51.951Z,1.80
2018-07-31T16:18:03.030Z,1.70
2018-07-31T16:20:31.783Z,1.67
2018-07-31T16:23:00.312Z,1.37
2018-07-31T16:25:28.455Z,1.30
2018-07-31T16:27:57.026Z,1.00
2018-07-31T16:30:25.638Z,1.30
2018-07-31T16:32:54.410Z,1.20
2018-07-31T16:35:23.004Z,1.20
2018-07-31T16:37:53.293Z,1.30
2018-07-31T16:40:21.893Z,1.40
2018-07-31T16:42:50.387Z,1.37
2018-07-31T16:45:18.863Z,1.10
2018-07-31T16:47:47.747Z,1.40
2018-07-31T16:50:16.949Z,1.67
2018-07-31T16:52:45.414Z,1.10
2018-07-31T16:55:13.971Z,0.90
2018-07-31T16:57:42.419Z,1.30
2018-07-31T17:00:10.843Z,1.20
2018-07-31T17:02:39.240Z,1.10
2018-07-31T17:05:07.675Z,1.00
2018-07-31T17:07:35.794Z,1.30
2018-07-31T17:10:04.704Z,1.43
2018-07-31T17:12:33.287Z,3.33
2018-07-31T17:15:01.789Z,5.77
2018-07-31T17:17:29.962Z,3.60
2018-07-31T17:19:58.415Z,4.10
2018-07-31T17:22:26.912Z,3.20
2018-07-31T17:24:55.583Z,2.07
2018-07-31T17:27:24.011Z,1.83
2018-07-31T17:29:52.214Z,1.50
2018-07-31T17:32:20.650Z,1.60
2018-07-31T17:34:49.079Z,1.40
2018-07-31T17:37:17.613Z,1.20
2018-07-31T17:39:46.028Z,1.33
2018-07-31T17:42:14.446Z,1.67
2018-07-31T17:44:42.909Z,1.20
2018-07-31T17:47:11.433Z,1.60
2018-07-31T17:49:40.028Z,1.00
2018-07-31T17:52:08.485Z,1.10
2018-07-31T17:54:36.903Z,1.10
2018-07-31T17:57:05.255Z,1.00
2018-07-31T17:59:33.699Z,1.33
2018-07-31T18:02:02.432Z,0.80
2018-07-31T18:04:30.887Z,1.23
2018-07-31T18:06:59.600Z,1.00
2018-07-31T18:09:28.121Z,1.00
2018-07-31T18:11:56.582Z,1.20
2018-07-31T18:14:24.758Z,1.37
2018-07-31T18:16:53.374Z,1.40
2018-07-31T18:19:21.795Z,1.10
2018-07-31T18:21:50.346Z,1.33
2018-07-31T18:24:18.828Z,1.10
2018-07-31T18:26:47.283Z,1.43
2018-07-31T18:29:15.837Z,1.37
2018-07-31T18:31:44.245Z,1.33
2018-07-31T18:34:12.895Z,1.20
2018-07-31T18:36:41.447Z,1.23
2018-07-31T18:39:12.004Z,1.27
2018-07-31T18:41:41.207Z,1.53
2018-07-31T18:44:10.203Z,1.33
2018-07-31T18:46:38.699Z,1.40
2018-07-31T18:49:07.155Z,1.37
2018-07-31T18:51:35.905Z,1.03
2018-07-31T18:54:04.631Z,0.97
2018-07-31T18:56:33.461Z,1.40
2018-07-31T18:59:01.879Z,1.23
2018-07-31T19:01:30.546Z,0.73
2018-07-31T19:03:58.631Z,1.07
2018-07-31T19:06:27.163Z,1.10
2018-07-31T19:08:55.720Z,1.47
2018-07-31T19:11:24.592Z,1.20
2018-07-31T19:13:53.095Z,0.90
2018-07-31T19:16:21.892Z,1.50
2018-07-31T19:18:50.463Z,1.90
2018-07-31T19:21:18.979Z,1.57
2018-07-31T19:23:47.543Z,1.60
2018-07-31T19:26:16.072Z,1.67
2018-07-31T19:28:44.624Z,1.20
2018-07-31T19:31:13.066Z,1.53
2018-07-31T19:33:41.639Z,1.80
2018-07-31T19:36:10.099Z,1.70
2018-07-31T19:38:38.519Z,1.87
2018-07-31T19:41:07.180Z,2.13
2018-07-31T19:43:35.685Z,1.97
2018-07-31T19:46:04.192Z,1.97
2018-07-31T19:48:32.759Z,1.80
2018-07-31T19:51:01.277Z,1.80
2018-07-31T19:53:29.753Z,2.07
2018-07-31T19:55:58.309Z,2.13
2018-07-31T19:58:26.861Z,2.27
2018-07-31T20:00:55.487Z,2.47
2018-07-31T20:03:23.986Z,2.50
2018-07-31T20:05:52.913Z,2.50
2018-07-31T20:08:21.560Z,3.97
2018-07-31T20:10:50.020Z,3.27
2018-07-31T20:13:18.662Z,3.10
2018-07-31T20:15:47.309Z,4.80
2018-07-31T20:18:15.808Z,4.73
2018-07-31T20:20:44.306Z,2.87
2018-07-31T20:23:13.027Z,3.00
2018-07-31T20:25:41.556Z,2.93
2018-07-31T20:28:09.981Z,2.63
2018-07-31T20:30:38.646Z,3.40
2018-07-31T20:33:06.830Z,3.00
2018-07-31T20:35:35.548Z,2.60
2018-07-31T20:38:04.100Z,8.33
2018-07-31T20:40:32.754Z,2.80
2018-07-31T20:43:01.237Z,2.93
2018-07-31T20:45:29.711Z,3.10
2018-07-31T20:47:58.272Z,2.80
2018-07-31T20:50:26.760Z,2.43
2018-07-31T20:52:55.217Z,4.10
2018-07-31T20:55:23.659Z,3.10
2018-07-31T20:57:52.195Z,4.53
2018-07-31T21:00:20.733Z,3.40
2018-07-31T21:02:49.153Z,3.63
2018-07-31T21:05:17.583Z,2.53
2018-07-31T21:07:45.681Z,2.97
2018-07-31T21:10:14.084Z,2.17
2018-07-31T21:14:06.955Z,2.10
2018-07-31T21:16:35.409Z,3.10
2018-07-31T21:19:03.824Z,2.50
2018-07-31T21:21:32.240Z,2.30
2018-07-31T21:25:24.716Z,2.57
2018-07-31T21:27:53.215Z,2.60
2018-07-31T21:30:21.645Z,3.00
2018-07-31T21:32:49.754Z,2.47
2018-07-31T21:35:18.150Z,2.30
2018-07-31T21:37:46.591Z,2.33
2018-07-31T21:40:15.020Z,2.90
2018-07-31T21:42:43.436Z,2.90
2018-07-31T21:45:11.530Z,2.53
2018-07-31T21:47:39.746Z,2.50
2018-07-31T21:50:07.774Z,2.37
2018-07-31T21:52:36.197Z,3.67
2018-07-31T21:55:05.187Z,2.83
2018-07-31T21:57:33.636Z,2.10
2018-07-31T22:00:02.068Z,2.20
2018-07-31T22:02:30.539Z,2.33
2018-07-31T22:04:58.939Z,2.60
2018-07-31T22:07:27.351Z,2.30
2018-07-31T22:09:55.532Z,2.00
2018-07-31T22:12:23.948Z,2.00
2018-07-31T22:14:52.363Z,1.90
2018-07-31T22:17:20.793Z,2.23
2018-07-31T22:19:49.333Z,2.23
2018-07-31T22:22:17.764Z,2.30
2018-07-31T22:24:46.215Z,2.50
2018-07-31T22:27:14.639Z,2.50
2018-07-31T22:29:43.099Z,1.70
2018-07-31T22:32:11.484Z,2.30
2018-07-31T22:34:39.896Z,2.30
2018-07-31T22:37:08.293Z,2.20
2018-07-31T22:39:36.695Z,2.13
2018-07-31T22:42:05.160Z,1.90
2018-07-31T22:44:33.270Z,2.43
2018-07-31T22:47:01.768Z,1.90
2018-07-31T22:49:30.187Z,2.10
2018-07-31T22:51:58.572Z,1.67
2018-07-31T22:55:53.967Z,1.80
2018-07-31T22:58:22.360Z,1.70
2018-07-31T23:00:50.841Z,1.90
2018-07-31T23:03:19.259Z,1.93
2018-07-31T23:05:47.687Z,2.10
2018-07-31T23:08:16.119Z,1.87
2018-07-31T23:10:44.561Z,1.97
2018-07-31T23:13:13.020Z,2.00
2018-07-31T23:15:41.451Z,2.07
2018-07-31T23:18:09.527Z,1.90
2018-07-31T23:20:37.711Z,1.90
2018-07-31T23:23:06.308Z,1.70
2018-07-31T23:25:34.727Z,1.97
2018-07-31T23:28:03.135Z,1.77
2018-07-31T23:30:31.290Z,1.53
2018-07-31T23:32:59.692Z,1.93
2018-07-31T23:35:27.842Z,1.60
2018-07-31T23:37:56.253Z,1.87
2018-07-31T23:40:24.719Z,2.10
2018-07-31T23:42:53.111Z,1.47
2018-07-31T23:45:21.519Z,1.70
2018-07-31T23:47:50.004Z,1.60
2018-07-31T23:50:18.447Z,1.80
2018-07-31T23:52:46.552Z,1.63
2018-07-31T23:55:14.934Z,2.10
2018-07-31T23:57:43.371Z,1.97
